createdAt,value
2022-07-29T00:01:41.494Z,76.99
2022-07-29T00:04:09.424Z,76.81
2022-07-29T00:06:37.252Z,76.73
2022-07-29T00:09:05.609Z,76.78
2022-07-29T00:11:33.487Z,76.91
2022-07-29T00:14:01.652Z,76.85
2022-07-29T00:16:29.900Z,77.22
2022-07-29T00:19:01.921Z,77.42
2022-07-29T00:21:30.610Z,77.30
2022-07-29T00:23:58.670Z,77.14
2022-07-29T00:26:28.812Z,77.00
2022-07-29T00:29:23.715Z,77.04
2022-07-29T00:31:44.737Z,77.08
2022-07-29T00:34:30.961Z,76.94
2022-07-29T00:36:59.038Z,77.00
2022-07-29T00:39:26.955Z,77.00
2022-07-29T00:41:55.594Z,76.97
2022-07-29T00:44:23.706Z,76.91
2022-07-29T00:46:51.548Z,76.92
2022-07-29T00:49:19.555Z,76.99
2022-07-29T00:51:48.838Z,76.97
2022-07-29T00:54:17.133Z,76.93
2022-07-29T00:56:45.472Z,76.84
2022-07-29T00:59:13.588Z,76.86
2022-07-29T01:01:41.427Z,76.85
2022-07-29T01:04:09.476Z,76.93
2022-07-29T01:06:37.699Z,77.01
2022-07-29T01:09:06.956Z,76.95
2022-07-29T01:11:35.186Z,76.87
2022-07-29T01:14:08.877Z,76.90
2022-07-29T01:17:02.901Z,76.86
2022-07-29T01:19:52.106Z,76.82
2022-07-29T01:23:03.700Z,76.64
2022-07-29T01:26:01.351Z,76.81
2022-07-29T01:28:48.859Z,76.79
2022-07-29T01:31:25.402Z,76.75
2022-07-29T01:34:02.648Z,76.84
2022-07-29T01:36:38.482Z,76.71
2022-07-29T01:39:14.996Z,76.80
2022-07-29T01:41:51.923Z,76.82
2022-07-29T01:44:32.326Z,76.75
2022-07-29T01:47:06.022Z,76.73
2022-07-29T01:49:37.940Z,76.91
2022-07-29T01:52:19.305Z,76.99
2022-07-29T01:54:55.333Z,76.99
2022-07-29T01:57:28.877Z,76.86
2022-07-29T01:59:59.726Z,76.90
2022-07-29T02:02:29.695Z,77.10
2022-07-29T02:05:00.094Z,77.06
2022-07-29T02:07:30.687Z,76.98
2022-07-29T02:10:01.589Z,77.17
2022-07-29T02:12:32.188Z,77.12
2022-07-29T02:15:02.469Z,77.15
2022-07-29T02:17:38.823Z,77.16
2022-07-29T02:20:10.528Z,77.18
2022-07-29T02:22:40.345Z,77.00
2022-07-29T02:25:14.022Z,76.94
2022-07-29T02:27:43.831Z,76.66
2022-07-29T02:30:13.772Z,76.71
2022-07-29T02:32:44.488Z,76.69
2022-07-29T02:35:17.139Z,76.62
2022-07-29T02:38:07.163Z,76.65
2022-07-29T02:40:38.786Z,76.68
2022-07-29T02:43:08.373Z,76.62
2022-07-29T02:45:36.289Z,76.70
2022-07-29T02:48:10.735Z,76.68
2022-07-29T02:50:45.460Z,76.64
2022-07-29T02:53:17.579Z,76.61
2022-07-29T02:55:49.985Z,76.54
2022-07-29T02:58:31.973Z,76.41
2022-07-29T03:01:04.201Z,76.66
2022-07-29T03:03:38.548Z,76.61
2022-07-29T03:06:08.380Z,76.66
2022-07-29T03:08:37.132Z,76.69
2022-07-29T03:11:05.937Z,76.80
2022-07-29T03:13:34.268Z,76.86
2022-07-29T03:16:02.732Z,76.84
2022-07-29T03:18:32.079Z,76.77
2022-07-29T03:21:00.161Z,76.92
2022-07-29T03:23:28.961Z,77.04
2022-07-29T03:26:03.814Z,77.15
2022-07-29T03:28:31.955Z,77.21
2022-07-29T03:31:00.413Z,77.22
2022-07-29T03:33:31.495Z,77.41
2022-07-29T03:35:59.513Z,77.48
2022-07-29T03:38:30.481Z,77.56
2022-07-29T03:41:04.564Z,77.50
2022-07-29T03:43:36.718Z,77.70
2022-07-29T03:46:07.747Z,77.93
2022-07-29T03:48:40.838Z,78.22
2022-07-29T03:51:09.143Z,78.58
2022-07-29T03:53:37.713Z,78.73
2022-07-29T03:56:07.824Z,78.82
2022-07-29T03:58:35.881Z,79.26
2022-07-29T04:01:04.048Z,79.41
2022-07-29T04:03:32.047Z,79.79
2022-07-29T04:06:02.770Z,79.78
2022-07-29T04:08:30.695Z,80.36
2022-07-29T04:10:58.668Z,80.47
2022-07-29T04:13:26.917Z,80.68
2022-07-29T04:15:55.079Z,80.94
2022-07-29T04:18:23.129Z,80.59
2022-07-29T04:20:51.781Z,80.65
2022-07-29T04:23:19.648Z,81.00
2022-07-29T04:25:48.482Z,81.05
2022-07-29T04:28:16.483Z,81.05
2022-07-29T04:30:45.113Z,80.54
2022-07-29T04:33:13.103Z,80.40
2022-07-29T04:35:49.826Z,80.30
2022-07-29T04:38:18.565Z,80.58
2022-07-29T04:40:46.841Z,79.85
2022-07-29T04:43:16.331Z,80.07
2022-07-29T04:45:44.213Z,80.25
2022-07-29T04:48:12.418Z,79.93
2022-07-29T04:50:41.184Z,80.34
2022-07-29T04:53:09.166Z,79.83
2022-07-29T04:55:38.882Z,80.29
2022-07-29T04:58:07.059Z,80.03
2022-07-29T05:00:35.650Z,80.09
2022-07-29T05:03:05.024Z,80.75
2022-07-29T05:05:33.088Z,80.12
2022-07-29T05:08:01.034Z,79.40
2022-07-29T05:10:29.963Z,79.70
2022-07-29T05:12:57.986Z,80.39
2022-07-29T05:15:25.931Z,79.53
2022-07-29T05:17:54.223Z,79.35
2022-07-29T05:20:27.158Z,78.85
2022-07-29T05:22:56.850Z,78.37
2022-07-29T05:25:43.433Z,78.08
2022-07-29T05:28:13.213Z,77.92
2022-07-29T05:30:41.074Z,77.70
2022-07-29T05:33:09.036Z,77.65
2022-07-29T05:36:00.343Z,77.09
2022-07-29T05:38:30.659Z,76.74
2022-07-29T05:41:00.114Z,76.57
2022-07-29T05:43:29.701Z,76.42
2022-07-29T05:45:58.115Z,76.12
2022-07-29T05:48:26.599Z,76.18
2022-07-29T05:50:54.524Z,76.08
2022-07-29T05:53:22.401Z,75.89
2022-07-29T05:55:51.104Z,75.73
2022-07-29T05:58:19.216Z,75.41
2022-07-29T06:00:47.047Z,75.20
2022-07-29T06:03:15.587Z,74.95
2022-07-29T06:05:43.445Z,74.47
2022-07-29T06:08:11.326Z,74.02
2022-07-29T06:10:39.460Z,73.98
2022-07-29T06:13:07.843Z,73.47
2022-07-29T06:15:35.652Z,73.57
2022-07-29T06:18:03.835Z,73.24
2022-07-29T06:20:33.070Z,72.82
2022-07-29T06:23:01.182Z,72.65
2022-07-29T06:25:35.874Z,71.90
2022-07-29T06:28:04.152Z,71.59
2022-07-29T06:30:32.511Z,71.21
2022-07-29T06:33:01.408Z,70.77
2022-07-29T06:35:38.973Z,70.53
2022-07-29T06:38:31.649Z,70.56
2022-07-29T06:41:06.967Z,70.05
2022-07-29T06:43:51.821Z,69.67
2022-07-29T06:46:27.901Z,69.11
2022-07-29T06:48:56.125Z,68.96
2022-07-29T06:51:24.320Z,69.13
2022-07-29T06:53:58.304Z,68.63
2022-07-29T06:56:28.330Z,68.24
2022-07-29T06:58:56.496Z,68.00
2022-07-29T07:01:24.547Z,67.93
2022-07-29T07:03:52.973Z,66.60
2022-07-29T07:06:20.774Z,66.25
2022-07-29T07:08:48.732Z,64.91
2022-07-29T07:11:17.278Z,66.23
2022-07-29T07:13:45.108Z,65.90
2022-07-29T07:16:13.576Z,66.10
2022-07-29T07:18:41.848Z,66.31
2022-07-29T07:21:09.733Z,66.39
2022-07-29T07:23:37.551Z,66.33
2022-07-29T07:26:06.944Z,66.09
2022-07-29T07:28:34.786Z,65.75
2022-07-29T07:31:02.570Z,65.11
2022-07-29T07:33:31.058Z,65.10
2022-07-29T07:35:58.896Z,64.30
2022-07-29T07:38:26.642Z,64.57
2022-07-29T07:40:54.795Z,63.77
2022-07-29T07:43:23.668Z,63.29
2022-07-29T07:45:51.495Z,62.87
2022-07-29T07:48:21.925Z,62.96
2022-07-29T07:50:50.486Z,62.55
2022-07-29T07:53:18.669Z,62.95
2022-07-29T07:56:09.428Z,62.56
2022-07-29T07:58:36.336Z,62.92
2022-07-29T08:01:04.595Z,62.38
2022-07-29T08:03:32.540Z,61.31
2022-07-29T08:06:00.374Z,61.06
2022-07-29T08:08:28.592Z,61.14
2022-07-29T08:11:03.129Z,60.65
2022-07-29T08:13:33.992Z,59.16
2022-07-29T08:16:02.755Z,60.19
2022-07-29T08:18:32.069Z,59.76
2022-07-29T08:21:00.377Z,59.65
2022-07-29T08:23:45.748Z,58.39
2022-07-29T08:26:17.140Z,59.20
2022-07-29T08:28:46.999Z,58.46
2022-07-29T08:31:15.459Z,57.62
2022-07-29T08:33:43.954Z,57.91
2022-07-29T08:36:11.798Z,57.87
2022-07-29T08:38:39.769Z,57.62
2022-07-29T08:41:07.874Z,57.35
2022-07-29T08:43:38.469Z,56.50
2022-07-29T08:46:06.772Z,56.99
2022-07-29T08:48:35.553Z,56.93
2022-07-29T08:51:04.685Z,56.41
2022-07-29T08:53:34.092Z,56.72
2022-07-29T08:56:03.248Z,56.13
2022-07-29T08:58:38.188Z,55.71
2022-07-29T09:01:12.454Z,55.48
2022-07-29T09:03:42.552Z,54.99
2022-07-29T09:06:19.262Z,54.09
2022-07-29T09:08:47.571Z,54.04
2022-07-29T09:11:15.773Z,53.46
2022-07-29T09:13:43.666Z,53.67
2022-07-29T09:16:11.536Z,52.62
2022-07-29T09:18:44.389Z,52.85
2022-07-29T09:21:36.210Z,52.77
2022-07-29T09:24:14.658Z,53.09
2022-07-29T09:26:47.226Z,53.02
2022-07-29T09:29:26.061Z,53.76
2022-07-29T09:31:55.886Z,53.13
2022-07-29T09:34:30.804Z,51.00
2022-07-29T09:36:59.051Z,51.58
2022-07-29T09:39:32.087Z,51.00
2022-07-29T09:42:05.610Z,49.73
2022-07-29T09:44:47.206Z,51.08
2022-07-29T09:47:16.225Z,50.97
2022-07-29T09:50:12.644Z,50.27
2022-07-29T09:52:49.692Z,49.32
2022-07-29T09:55:19.788Z,48.21
2022-07-29T09:57:51.999Z,48.23
2022-07-29T10:00:21.623Z,48.44
2022-07-29T10:02:52.712Z,48.42
2022-07-29T10:05:26.283Z,48.91
2022-07-29T10:07:58.804Z,49.42
2022-07-29T10:10:35.261Z,49.05
2022-07-29T10:13:13.434Z,50.08
2022-07-29T10:15:47.021Z,50.93
2022-07-29T10:18:18.324Z,50.91
2022-07-29T10:20:46.909Z,50.78
2022-07-29T10:23:15.526Z,49.79
2022-07-29T10:25:46.369Z,49.85
2022-07-29T10:28:16.742Z,50.21
2022-07-29T10:30:46.780Z,49.00
2022-07-29T10:33:24.130Z,48.50
2022-07-29T10:36:24.791Z,48.86
2022-07-29T10:39:15.936Z,49.60
2022-07-29T10:42:20.094Z,49.55
2022-07-29T10:44:58.179Z,48.64
2022-07-29T10:47:29.359Z,49.77
2022-07-29T10:50:01.090Z,48.55
2022-07-29T10:52:50.698Z,48.36
2022-07-29T10:55:54.508Z,48.25
2022-07-29T10:58:27.478Z,48.63
2022-07-29T11:00:58.839Z,47.91
2022-07-29T11:03:49.696Z,48.39
2022-07-29T11:06:26.729Z,48.94
2022-07-29T11:09:20.134Z,48.33
2022-07-29T11:11:51.659Z,47.66
2022-07-29T11:15:00.333Z,48.53
2022-07-29T11:17:37.388Z,48.17
2022-07-29T11:20:45.907Z,48.37
2022-07-29T11:23:33.550Z,48.24
2022-07-29T11:26:23.471Z,49.14
2022-07-29T11:28:52.313Z,47.86
2022-07-29T11:31:40.437Z,48.19
2022-07-29T11:34:33.320Z,47.84
2022-07-29T11:37:15.092Z,48.61
2022-07-29T11:40:00.293Z,48.21
2022-07-29T11:42:34.228Z,48.65
2022-07-29T11:45:43.164Z,48.38
2022-07-29T11:48:29.971Z,48.52
2022-07-29T11:50:58.526Z,47.77
2022-07-29T11:53:29.179Z,47.99
2022-07-29T11:56:03.990Z,47.76
2022-07-29T11:58:32.955Z,46.97
2022-07-29T12:01:04.519Z,48.49
2022-07-29T12:03:35.948Z,48.23
2022-07-29T12:06:13.602Z,47.59
2022-07-29T12:08:44.172Z,47.27
2022-07-29T12:11:23.582Z,47.10
2022-07-29T12:13:52.928Z,46.73
2022-07-29T12:16:25.722Z,47.88
2022-07-29T12:19:03.798Z,47.58
2022-07-29T12:21:56.445Z,46.84
2022-07-29T12:24:27.671Z,46.40
2022-07-29T12:26:58.243Z,45.95
2022-07-29T12:29:35.203Z,46.37
2022-07-29T12:32:14.351Z,45.67
2022-07-29T12:34:43.282Z,46.20
2022-07-29T12:37:11.611Z,46.09
2022-07-29T12:39:40.317Z,46.48
2022-07-29T12:42:18.440Z,46.57
2022-07-29T12:44:48.774Z,46.69
2022-07-29T12:47:19.381Z,46.44
2022-07-29T12:49:48.830Z,46.32
2022-07-29T12:52:29.108Z,45.86
2022-07-29T12:55:06.238Z,46.55
2022-07-29T13:00:36.364Z,44.77
2022-07-29T13:03:04.792Z,45.30
2022-07-29T13:05:49.082Z,44.96
2022-07-29T13:08:21.962Z,44.99
2022-07-29T13:10:57.784Z,45.43
2022-07-29T13:13:26.006Z,45.07
2022-07-29T13:16:08.801Z,45.41
2022-07-29T13:18:40.089Z,45.50
2022-07-29T13:21:18.730Z,45.14
2022-07-29T13:23:47.214Z,45.57
2022-07-29T13:26:17.341Z,45.95
2022-07-29T13:28:45.213Z,45.88
2022-07-29T13:31:13.673Z,45.43
2022-07-29T13:33:41.766Z,45.46
2022-07-29T13:36:09.524Z,45.33
2022-07-29T13:38:37.736Z,45.48
2022-07-29T13:41:05.721Z,44.85
2022-07-29T13:43:34.184Z,44.63
2022-07-29T13:46:02.806Z,44.37
2022-07-29T13:48:30.940Z,44.52
2022-07-29T13:50:58.780Z,43.90
2022-07-29T13:53:27.386Z,43.97
2022-07-29T13:55:56.172Z,44.17
2022-07-29T13:58:24.529Z,44.55
2022-07-29T14:00:53.051Z,44.00
2022-07-29T14:03:21.016Z,44.35
2022-07-29T14:05:49.196Z,44.66
2022-07-29T14:08:17.526Z,44.38
2022-07-29T14:10:45.349Z,44.61
2022-07-29T14:13:24.642Z,44.83
2022-07-29T14:15:54.256Z,45.30
2022-07-29T14:18:22.110Z,45.09
2022-07-29T14:20:50.572Z,45.09
2022-07-29T14:23:20.200Z,44.85
2022-07-29T14:25:49.392Z,44.88
2022-07-29T14:28:17.953Z,45.06
2022-07-29T14:30:46.319Z,44.83
2022-07-29T14:33:14.416Z,45.39
2022-07-29T14:35:42.415Z,44.53
2022-07-29T14:38:10.880Z,44.90
2022-07-29T14:40:39.045Z,44.50
2022-07-29T14:43:06.928Z,44.72
2022-07-29T14:45:35.195Z,44.55
2022-07-29T14:48:03.169Z,44.01
2022-07-29T14:50:32.074Z,43.76
2022-07-29T14:53:03.715Z,44.08
2022-07-29T14:55:31.532Z,43.96
2022-07-29T14:58:08.771Z,43.98
2022-07-29T15:00:38.874Z,43.05
2022-07-29T15:03:10.949Z,43.88
2022-07-29T15:05:39.813Z,43.28
2022-07-29T15:08:09.167Z,42.80
2022-07-29T15:10:37.483Z,43.24
2022-07-29T15:13:05.881Z,43.56
2022-07-29T15:15:33.739Z,42.99
2022-07-29T15:18:01.924Z,43.46
2022-07-29T15:20:30.329Z,43.10
2022-07-29T15:22:58.305Z,43.28
2022-07-29T15:25:28.223Z,43.65
2022-07-29T15:28:01.162Z,43.23
2022-07-29T15:30:34.053Z,43.78
2022-07-29T15:33:03.580Z,43.66
2022-07-29T15:35:31.849Z,43.97
2022-07-29T15:37:59.769Z,43.90
2022-07-29T15:40:27.861Z,44.43
2022-07-29T15:42:56.007Z,45.09
2022-07-29T15:45:24.035Z,44.83
2022-07-29T15:47:52.258Z,44.79
2022-07-29T15:50:21.288Z,44.69
2022-07-29T15:52:49.094Z,44.89
2022-07-29T15:55:17.391Z,46.17
2022-07-29T15:57:45.295Z,45.71
2022-07-29T16:00:13.890Z,45.57
2022-07-29T16:02:41.994Z,45.80
2022-07-29T16:05:10.473Z,45.82
2022-07-29T16:07:38.276Z,45.90
2022-07-29T16:10:08.070Z,45.81
2022-07-29T16:12:39.978Z,45.70
2022-07-29T16:15:10.443Z,46.18
2022-07-29T16:17:39.561Z,46.25
2022-07-29T16:20:08.302Z,46.44
2022-07-29T16:22:36.471Z,46.30
2022-07-29T16:25:05.012Z,46.24
2022-07-29T16:27:37.634Z,46.61
2022-07-29T16:30:10.005Z,46.86
2022-07-29T16:32:38.017Z,46.91
2022-07-29T16:35:07.214Z,47.15
2022-07-29T16:37:36.886Z,47.11
2022-07-29T16:40:06.389Z,47.12
2022-07-29T16:42:49.167Z,47.29
2022-07-29T16:45:21.142Z,47.25
2022-07-29T16:47:50.022Z,47.14
2022-07-29T16:50:18.375Z,47.44
2022-07-29T16:52:46.203Z,47.64
2022-07-29T16:55:14.212Z,47.63
2022-07-29T16:57:43.947Z,47.82
2022-07-29T17:00:12.503Z,47.70
2022-07-29T17:02:40.522Z,47.64
2022-07-29T17:05:10.753Z,47.68
2022-07-29T17:07:40.287Z,47.44
2022-07-29T17:10:09.647Z,47.19
2022-07-29T17:12:39.262Z,46.86
2022-07-29T17:15:11.603Z,47.40
2022-07-29T17:17:56.454Z,46.96
2022-07-29T17:20:26.825Z,46.97
2022-07-29T17:22:55.519Z,46.41
2022-07-29T17:25:24.383Z,46.27
2022-07-29T17:27:55.330Z,46.33
2022-07-29T17:30:25.673Z,46.62
2022-07-29T17:32:53.929Z,46.71
2022-07-29T17:35:40.622Z,46.66
2022-07-29T17:38:08.813Z,46.75
2022-07-29T17:40:36.611Z,46.86
2022-07-29T17:43:05.278Z,47.13
2022-07-29T17:45:49.914Z,46.82
2022-07-29T17:48:19.205Z,47.26
2022-07-29T17:50:48.029Z,47.04
2022-07-29T17:53:16.875Z,46.92
2022-07-29T17:55:46.202Z,47.10
2022-07-29T17:58:14.981Z,47.12
2022-07-29T18:00:43.066Z,46.82
2022-07-29T18:03:11.246Z,46.75
2022-07-29T18:05:39.407Z,46.88
2022-07-29T18:08:07.272Z,46.92
2022-07-29T18:10:35.243Z,46.68
2022-07-29T18:13:04.259Z,46.87
2022-07-29T18:15:32.169Z,46.90
2022-07-29T18:18:00.089Z,46.88
2022-07-29T18:20:28.531Z,47.31
2022-07-29T18:22:56.477Z,47.43
2022-07-29T18:25:25.873Z,47.38
2022-07-29T18:27:57.250Z,47.72
2022-07-29T18:30:29.623Z,48.17
2022-07-29T18:33:19.834Z,48.20
2022-07-29T18:35:50.094Z,48.44
2022-07-29T18:38:18.609Z,48.99
2022-07-29T18:40:46.535Z,49.20
2022-07-29T18:43:14.819Z,49.41
2022-07-29T18:45:42.960Z,48.96
2022-07-29T18:48:12.909Z,49.40
2022-07-29T18:50:41.862Z,49.38
2022-07-29T18:53:10.156Z,49.86
2022-07-29T18:55:38.051Z,50.09
2022-07-29T18:58:06.111Z,50.35
2022-07-29T19:00:34.322Z,51.01
2022-07-29T19:03:03.522Z,51.80
2022-07-29T19:05:31.725Z,51.81
2022-07-29T19:07:59.921Z,51.80
2022-07-29T19:10:27.730Z,52.37
2022-07-29T19:12:56.902Z,52.39
2022-07-29T19:15:25.138Z,52.77
2022-07-29T19:17:56.551Z,52.54
2022-07-29T19:20:27.494Z,53.01
2022-07-29T19:22:55.538Z,53.23
2022-07-29T19:25:23.471Z,53.53
2022-07-29T19:27:51.907Z,53.63
2022-07-29T19:30:20.098Z,53.65
2022-07-29T19:32:48.138Z,53.51
2022-07-29T19:35:33.199Z,53.82
2022-07-29T19:38:02.688Z,54.18
2022-07-29T19:40:30.717Z,54.13
2022-07-29T19:42:59.207Z,54.20
2022-07-29T19:45:27.075Z,54.69
2022-07-29T19:48:00.682Z,54.71
2022-07-29T19:50:29.984Z,54.78
2022-07-29T19:52:58.169Z,54.94
2022-07-29T19:55:27.128Z,54.78
2022-07-29T19:57:55.421Z,55.13
2022-07-29T20:00:24.284Z,55.72
2022-07-29T20:02:52.678Z,55.63
2022-07-29T20:05:20.947Z,56.17
2022-07-29T20:07:56.382Z,56.38
2022-07-29T20:10:24.499Z,55.84
2022-07-29T20:12:55.018Z,56.25
2022-07-29T20:15:23.797Z,56.38
2022-07-29T20:17:56.891Z,56.35
2022-07-29T20:20:26.194Z,56.00
2022-07-29T20:22:54.591Z,56.45
2022-07-29T20:25:23.512Z,56.30
2022-07-29T20:27:52.599Z,56.01
2022-07-29T20:30:22.295Z,55.71
2022-07-29T20:32:57.468Z,55.73
2022-07-29T20:35:26.346Z,55.49
2022-07-29T20:37:56.628Z,55.33
2022-07-29T20:40:26.594Z,55.07
2022-07-29T20:42:56.348Z,54.92
2022-07-29T20:45:27.178Z,54.82
2022-07-29T20:47:55.405Z,54.88
2022-07-29T20:50:24.725Z,54.86
2022-07-29T20:52:53.363Z,54.96
2022-07-29T20:55:23.795Z,54.73
2022-07-29T20:57:55.942Z,54.75
2022-07-29T21:00:24.368Z,54.59
2022-07-29T21:02:52.421Z,54.50
2022-07-29T21:05:20.586Z,54.47
2022-07-29T21:07:48.595Z,54.50
2022-07-29T21:10:18.440Z,54.42
2022-07-29T21:12:46.908Z,54.37
2022-07-29T21:15:16.321Z,54.54
2022-07-29T21:17:52.195Z,54.53
2022-07-29T21:20:21.150Z,54.20
2022-07-29T21:22:49.138Z,54.42
2022-07-29T21:25:17.458Z,54.30
2022-07-29T21:28:10.525Z,54.24
2022-07-29T21:30:38.424Z,54.15
2022-07-29T21:33:09.470Z,54.08
2022-07-29T21:36:06.311Z,54.13
2022-07-29T21:38:29.339Z,53.83
2022-07-29T21:40:57.695Z,53.82
2022-07-29T21:43:29.432Z,53.67
2022-07-29T21:45:58.974Z,53.62
2022-07-29T21:48:28.660Z,53.79
2022-07-29T21:50:57.544Z,53.67
2022-07-29T21:53:28.135Z,53.69
2022-07-29T21:55:56.040Z,53.65
2022-07-29T21:58:24.867Z,53.63
2022-07-29T22:00:54.093Z,53.65
2022-07-29T22:03:22.336Z,53.65
2022-07-29T22:05:50.089Z,53.66
2022-07-29T22:08:21.135Z,53.64
2022-07-29T22:10:49.652Z,53.44
2022-07-29T22:13:19.718Z,53.51
2022-07-29T22:15:48.270Z,53.66
2022-07-29T22:18:21.056Z,53.76
2022-07-29T22:20:50.832Z,53.63
2022-07-29T22:23:18.803Z,53.57
2022-07-29T22:25:46.984Z,53.71
2022-07-29T22:28:15.040Z,53.79
2022-07-29T22:30:43.221Z,53.67
2022-07-29T22:33:17.568Z,53.69
2022-07-29T22:35:48.682Z,53.71
2022-07-29T22:38:18.255Z,53.71
2022-07-29T22:40:48.753Z,53.67
2022-07-29T22:43:19.035Z,53.65
2022-07-29T22:45:47.314Z,53.60
2022-07-29T22:48:15.670Z,53.60
2022-07-29T22:50:43.841Z,53.71
2022-07-29T22:53:11.699Z,53.77
2022-07-29T22:55:39.664Z,53.74
2022-07-29T22:58:07.741Z,53.66
2022-07-29T23:00:35.997Z,53.69
2022-07-29T23:03:04.593Z,53.73
2022-07-29T23:05:32.816Z,53.88
2022-07-29T23:08:00.916Z,53.82
2022-07-29T23:10:28.872Z,53.80
2022-07-29T23:13:00.278Z,53.84
2022-07-29T23:15:28.095Z,53.94
2022-07-29T23:17:55.907Z,53.93
2022-07-29T23:20:24.029Z,53.84
2022-07-29T23:22:51.798Z,53.93
2022-07-29T23:25:19.811Z,53.93
2022-07-29T23:27:47.950Z,54.10
2022-07-29T23:30:16.074Z,54.09
2022-07-29T23:32:43.884Z,54.07
2022-07-29T23:35:11.885Z,54.00
2022-07-29T23:37:39.913Z,54.00
2022-07-29T23:40:13.641Z,54.01
2022-07-29T23:42:43.014Z,54.00
2022-07-29T23:45:13.275Z,54.03
2022-07-29T23:47:41.693Z,54.11
2022-07-29T23:50:16.372Z,54.14
2022-07-29T23:52:44.790Z,54.13
2022-07-29T23:55:36.610Z,54.27
2022-07-29T23:58:01.617Z,54.44
